首页
METAR-TAF:

METAR-TAF

机场 :

Benson, 英格兰

纬度: 51-37N, 经度: 001-05W, 海拔: 63米

当前天气观测

该预报发布于1小时和6分钟前的13:50 UTC
风速16节,风向西转西北,有时为26节阵风
温度 12°C
湿度 62%
气压 1017 hPa
能见度10公里或以上

METAR: EGUB 231350Z AUTO 29016G26KT 9999 // SCT046/// 12/05 Q1017

时间: 14:56 (14:56 UTC)

预报

该预报发布于29小时和54分钟前的09:02 UTC
预报有效从22日的 09点(UTC)到 22日的 18点(UTC)
风速15节,风向西南,有时为25节阵风
能见度10公里或以上
多云层高于1400英尺
成为
从 22日的 09点(UTC)到 22日的 11点(UTC)
风速20节,风向西转西南,有时为35节阵风
散云层高于2500英尺
成为
从 22日的 16点(UTC)到 22日的 18点(UTC)
风速15节,风向西转西南,有时为25节阵风

TAF: EGUB 220902Z 2209/2218 23015G25KT 9999 BKN014 BECMG 2209/2211 25020G35KT SCT025 BECMG 2216/2218 24015G25KT

超过4000个机场的气象观测和天气预报(METAR&TAF报告)。

可查询的气象台以黄色和红色小点在地图上表示。

将鼠标移到小点上方,可查看气象台名称。

然后点击查看天气观测和预报。

如需切换地图:点击带黑十字的绿色按钮放大地图;点击带横线的绿色按钮缩小地图;或者点击绿色箭头查看邻近地区的地图。


METAR-TAF: